sensor_id;sensor_type;location;lat;lon;timestamp;P1;durP1;ratioP1;P2;durP2;ratioP2
45848;SDS011;31567;54.600;9.842;2023-11-18T00:02:54;9.77;;;8.55;;
45848;SDS011;31567;54.600;9.842;2023-11-18T00:06:33;10.77;;;8.38;;
45848;SDS011;31567;54.600;9.842;2023-11-18T00:10:13;10.43;;;8.75;;
45848;SDS011;31567;54.600;9.842;2023-11-18T00:13:52;9.75;;;8.20;;
45848;SDS011;31567;54.600;9.842;2023-11-18T00:17:33;13.75;;;9.55;;
45848;SDS011;31567;54.600;9.842;2023-11-18T00:21:12;13.20;;;9.70;;
45848;SDS011;31567;54.600;9.842;2023-11-18T00:24:52;15.00;;;10.93;;
45848;SDS011;31567;54.600;9.842;2023-11-18T00:28:31;13.68;;;9.95;;
45848;SDS011;31567;54.600;9.842;2023-11-18T00:32:11;15.30;;;10.52;;
45848;SDS011;31567;54.600;9.842;2023-11-18T00:35:50;12.93;;;10.18;;
45848;SDS011;31567;54.600;9.842;2023-11-18T00:39:30;13.77;;;10.20;;
45848;SDS011;31567;54.600;9.842;2023-11-18T00:43:09;13.40;;;10.30;;
45848;SDS011;31567;54.600;9.842;2023-11-18T00:46:49;13.27;;;10.20;;
45848;SDS011;31567;54.600;9.842;2023-11-18T00:50:28;11.25;;;9.80;;
45848;SDS011;31567;54.600;9.842;2023-11-18T00:54:08;10.93;;;9.10;;
45848;SDS011;31567;54.600;9.842;2023-11-18T00:57:48;11.95;;;9.55;;
45848;SDS011;31567;54.600;9.842;2023-11-18T01:01:28;13.05;;;9.93;;
45848;SDS011;31567;54.600;9.842;2023-11-18T01:05:07;11.77;;;8.40;;
45848;SDS011;31567;54.600;9.842;2023-11-18T01:08:50;11.65;;;9.02;;
45848;SDS011;31567;54.600;9.842;2023-11-18T01:12:29;11.68;;;8.70;;
45848;SDS011;31567;54.600;9.842;2023-11-18T01:16:09;10.32;;;8.38;;
45848;SDS011;31567;54.600;9.842;2023-11-18T01:19:50;9.93;;;8.48;;
45848;SDS011;31567;54.600;9.842;2023-11-18T01:23:30;11.13;;;8.68;;
45848;SDS011;31567;54.600;9.842;2023-11-18T01:27:09;12.70;;;9.38;;
45848;SDS011;31567;54.600;9.842;2023-11-18T01:30:50;12.40;;;8.93;;
45848;SDS011;31567;54.600;9.842;2023-11-18T01:34:29;12.82;;;8.65;;
45848;SDS011;31567;54.600;9.842;2023-11-18T01:38:09;13.20;;;9.82;;
45848;SDS011;31567;54.600;9.842;2023-11-18T01:41:48;12.68;;;9.32;;
45848;SDS011;31567;54.600;9.842;2023-11-18T01:45:28;13.45;;;9.18;;
45848;SDS011;31567;54.600;9.842;2023-11-18T01:49:09;10.98;;;8.30;;
45848;SDS011;31567;54.600;9.842;2023-11-18T01:52:49;11.02;;;7.88;;
45848;SDS011;31567;54.600;9.842;2023-11-18T01:56:32;12.07;;;8.60;;
45848;SDS011;31567;54.600;9.842;2023-11-18T02:00:11;12.25;;;8.48;;
45848;SDS011;31567;54.600;9.842;2023-11-18T02:03:52;11.02;;;8.55;;
45848;SDS011;31567;54.600;9.842;2023-11-18T02:07:32;11.65;;;8.45;;
45848;SDS011;31567;54.600;9.842;2023-11-18T02:11:20;10.10;;;7.68;;
45848;SDS011;31567;54.600;9.842;2023-11-18T02:15:07;10.75;;;7.78;;
45848;SDS011;31567;54.600;9.842;2023-11-18T02:18:48;8.20;;;6.90;;
45848;SDS011;31567;54.600;9.842;2023-11-18T02:22:30;8.50;;;7.40;;
45848;SDS011;31567;54.600;9.842;2023-11-18T02:26:10;11.18;;;7.68;;
45848;SDS011;31567;54.600;9.842;2023-11-18T02:29:50;10.93;;;8.32;;
45848;SDS011;31567;54.600;9.842;2023-11-18T02:33:38;10.57;;;8.65;;
45848;SDS011;31567;54.600;9.842;2023-11-18T02:37:22;9.32;;;8.40;;
45848;SDS011;31567;54.600;9.842;2023-11-18T02:41:06;8.68;;;7.78;;
45848;SDS011;31567;54.600;9.842;2023-11-18T02:44:49;15.93;;;9.10;;
45848;SDS011;31567;54.600;9.842;2023-11-18T02:48:38;10.98;;;8.23;;
45848;SDS011;31567;54.600;9.842;2023-11-18T02:52:18;11.43;;;8.30;;
45848;SDS011;31567;54.600;9.842;2023-11-18T02:55:58;11.80;;;9.30;;
45848;SDS011;31567;54.600;9.842;2023-11-18T02:59:41;15.00;;;10.20;;
45848;SDS011;31567;54.600;9.842;2023-11-18T03:03:22;14.52;;;10.07;;
45848;SDS011;31567;54.600;9.842;2023-11-18T03:07:01;13.38;;;10.23;;
45848;SDS011;31567;54.600;9.842;2023-11-18T03:10:41;18.20;;;10.90;;
45848;SDS011;31567;54.600;9.842;2023-11-18T03:14:23;11.68;;;9.88;;
45848;SDS011;31567;54.600;9.842;2023-11-18T03:18:02;10.93;;;9.13;;
45848;SDS011;31567;54.600;9.842;2023-11-18T03:21:44;9.10;;;8.20;;
45848;SDS011;31567;54.600;9.842;2023-11-18T03:25:31;13.68;;;10.18;;
45848;SDS011;31567;54.600;9.842;2023-11-18T03:29:10;16.27;;;10.35;;
45848;SDS011;31567;54.600;9.842;2023-11-18T03:32:52;15.73;;;10.10;;
45848;SDS011;31567;54.600;9.842;2023-11-18T03:36:31;12.63;;;9.98;;
45848;SDS011;31567;54.600;9.842;2023-11-18T03:40:12;13.40;;;10.23;;
45848;SDS011;31567;54.600;9.842;2023-11-18T03:43:52;15.07;;;10.60;;
45848;SDS011;31567;54.600;9.842;2023-11-18T03:47:32;13.57;;;9.77;;
45848;SDS011;31567;54.600;9.842;2023-11-18T03:51:12;14.30;;;10.55;;
45848;SDS011;31567;54.600;9.842;2023-11-18T03:54:52;14.73;;;10.85;;
45848;SDS011;31567;54.600;9.842;2023-11-18T03:58:32;17.17;;;9.80;;
45848;SDS011;31567;54.600;9.842;2023-11-18T04:02:13;10.23;;;8.43;;
45848;SDS011;31567;54.600;9.842;2023-11-18T04:05:52;10.60;;;8.75;;
45848;SDS011;31567;54.600;9.842;2023-11-18T04:09:32;13.10;;;9.70;;
45848;SDS011;31567;54.600;9.842;2023-11-18T04:13:12;11.88;;;8.93;;
45848;SDS011;31567;54.600;9.842;2023-11-18T04:16:51;10.93;;;9.40;;
45848;SDS011;31567;54.600;9.842;2023-11-18T04:20:32;12.77;;;9.52;;
45848;SDS011;31567;54.600;9.842;2023-11-18T04:24:11;13.13;;;10.07;;
45848;SDS011;31567;54.600;9.842;2023-11-18T04:27:51;12.00;;;9.48;;
45848;SDS011;31567;54.600;9.842;2023-11-18T04:31:30;12.90;;;9.52;;
45848;SDS011;31567;54.600;9.842;2023-11-18T04:35:10;13.55;;;10.48;;
45848;SDS011;31567;54.600;9.842;2023-11-18T04:38:50;14.18;;;8.98;;
45848;SDS011;31567;54.600;9.842;2023-11-18T04:42:30;11.82;;;9.35;;
45848;SDS011;31567;54.600;9.842;2023-11-18T04:46:10;10.38;;;9.23;;
45848;SDS011;31567;54.600;9.842;2023-11-18T04:49:49;11.75;;;9.02;;
45848;SDS011;31567;54.600;9.842;2023-11-18T04:53:29;10.38;;;8.95;;
45848;SDS011;31567;54.600;9.842;2023-11-18T04:57:10;11.30;;;9.43;;
45848;SDS011;31567;54.600;9.842;2023-11-18T05:00:50;9.95;;;8.82;;
45848;SDS011;31567;54.600;9.842;2023-11-18T05:04:30;11.32;;;9.20;;
45848;SDS011;31567;54.600;9.842;2023-11-18T05:08:19;10.50;;;8.93;;
45848;SDS011;31567;54.600;9.842;2023-11-18T05:11:59;11.60;;;9.35;;
45848;SDS011;31567;54.600;9.842;2023-11-18T05:15:39;12.70;;;9.63;;
45848;SDS011;31567;54.600;9.842;2023-11-18T05:19:19;12.70;;;9.60;;
45848;SDS011;31567;54.600;9.842;2023-11-18T05:22:58;10.68;;;8.85;;
45848;SDS011;31567;54.600;9.842;2023-11-18T05:26:38;12.43;;;9.18;;
45848;SDS011;31567;54.600;9.842;2023-11-18T05:30:18;11.07;;;9.50;;
45848;SDS011;31567;54.600;9.842;2023-11-18T05:33:58;13.15;;;10.05;;
45848;SDS011;31567;54.600;9.842;2023-11-18T05:37:38;12.95;;;10.30;;
45848;SDS011;31567;54.600;9.842;2023-11-18T05:41:20;11.95;;;9.82;;
45848;SDS011;31567;54.600;9.842;2023-11-18T05:45:06;11.40;;;9.48;;
45848;SDS011;31567;54.600;9.842;2023-11-18T05:48:46;14.43;;;10.48;;
45848;SDS011;31567;54.600;9.842;2023-11-18T05:52:27;11.90;;;9.95;;
45848;SDS011;31567;54.600;9.842;2023-11-18T05:56:07;12.18;;;9.73;;
45848;SDS011;31567;54.600;9.842;2023-11-18T05:59:46;12.23;;;10.40;;
45848;SDS011;31567;54.600;9.842;2023-11-18T06:03:29;12.25;;;10.02;;
45848;SDS011;31567;54.600;9.842;2023-11-18T06:07:09;11.98;;;9.52;;
45848;SDS011;31567;54.600;9.842;2023-11-18T06:10:49;13.68;;;10.38;;
45848;SDS011;31567;54.600;9.842;2023-11-18T06:14:30;14.98;;;10.90;;
45848;SDS011;31567;54.600;9.842;2023-11-18T06:18:10;13.48;;;10.85;;
45848;SDS011;31567;54.600;9.842;2023-11-18T06:21:50;13.00;;;10.63;;
45848;SDS011;31567;54.600;9.842;2023-11-18T06:25:29;11.75;;;10.52;;
45848;SDS011;31567;54.600;9.842;2023-11-18T06:29:10;14.55;;;10.73;;
45848;SDS011;31567;54.600;9.842;2023-11-18T06:32:50;12.40;;;9.90;;
45848;SDS011;31567;54.600;9.842;2023-11-18T06:36:30;16.65;;;11.18;;
45848;SDS011;31567;54.600;9.842;2023-11-18T06:40:10;14.82;;;10.43;;
45848;SDS011;31567;54.600;9.842;2023-11-18T06:43:57;14.50;;;10.30;;
45848;SDS011;31567;54.600;9.842;2023-11-18T06:47:39;14.15;;;10.50;;
45848;SDS011;31567;54.600;9.842;2023-11-18T06:51:22;12.55;;;10.18;;
45848;SDS011;31567;54.600;9.842;2023-11-18T06:55:03;14.75;;;11.32;;
45848;SDS011;31567;54.600;9.842;2023-11-18T06:58:43;13.98;;;10.75;;
45848;SDS011;31567;54.600;9.842;2023-11-18T07:02:23;12.43;;;10.40;;
45848;SDS011;31567;54.600;9.842;2023-11-18T07:06:03;11.85;;;10.50;;
45848;SDS011;31567;54.600;9.842;2023-11-18T07:09:44;32.33;;;13.80;;
45848;SDS011;31567;54.600;9.842;2023-11-18T07:13:24;23.02;;;12.15;;
45848;SDS011;31567;54.600;9.842;2023-11-18T07:17:03;20.65;;;12.70;;
45848;SDS011;31567;54.600;9.842;2023-11-18T07:20:43;106.10;;;13.18;;
45848;SDS011;31567;54.600;9.842;2023-11-18T07:24:23;95.88;;;12.57;;
45848;SDS011;31567;54.600;9.842;2023-11-18T07:28:02;205.63;;;13.85;;
45848;SDS011;31567;54.600;9.842;2023-11-18T07:31:44;474.85;;;17.80;;
45848;SDS011;31567;54.600;9.842;2023-11-18T07:35:24;211.60;;;12.15;;
45848;SDS011;31567;54.600;9.842;2023-11-18T07:39:04;85.50;;;10.50;;
45848;SDS011;31567;54.600;9.842;2023-11-18T07:42:43;22.73;;;8.93;;
45848;SDS011;31567;54.600;9.842;2023-11-18T07:46:24;12.23;;;8.50;;
45848;SDS011;31567;54.600;9.842;2023-11-18T07:50:04;30.08;;;9.90;;
45848;SDS011;31567;54.600;9.842;2023-11-18T07:53:45;45.80;;;7.88;;
45848;SDS011;31567;54.600;9.842;2023-11-18T07:57:24;105.50;;;8.60;;
45848;SDS011;31567;54.600;9.842;2023-11-18T08:01:04;78.88;;;8.85;;
45848;SDS011;31567;54.600;9.842;2023-11-18T08:04:47;69.53;;;8.82;;
45848;SDS011;31567;54.600;9.842;2023-11-18T08:08:27;17.33;;;7.47;;
45848;SDS011;31567;54.600;9.842;2023-11-18T08:12:06;9.10;;;8.20;;
45848;SDS011;31567;54.600;9.842;2023-11-18T08:15:48;8.32;;;7.47;;
45848;SDS011;31567;54.600;9.842;2023-11-18T08:19:27;9.02;;;8.13;;
45848;SDS011;31567;54.600;9.842;2023-11-18T08:23:07;10.13;;;8.15;;
45848;SDS011;31567;54.600;9.842;2023-11-18T08:26:46;9.27;;;8.38;;
45848;SDS011;31567;54.600;9.842;2023-11-18T08:30:26;9.65;;;8.43;;
45848;SDS011;31567;54.600;9.842;2023-11-18T08:34:06;9.65;;;8.55;;
45848;SDS011;31567;54.600;9.842;2023-11-18T08:37:45;10.10;;;8.82;;
45848;SDS011;31567;54.600;9.842;2023-11-18T08:41:26;8.68;;;7.68;;
45848;SDS011;31567;54.600;9.842;2023-11-18T08:45:06;8.75;;;7.90;;
45848;SDS011;31567;54.600;9.842;2023-11-18T08:48:46;9.60;;;8.23;;
45848;SDS011;31567;54.600;9.842;2023-11-18T08:52:27;8.93;;;8.07;;
45848;SDS011;31567;54.600;9.842;2023-11-18T08:56:08;9.70;;;8.70;;
45848;SDS011;31567;54.600;9.842;2023-11-18T08:59:52;9.55;;;8.55;;
45848;SDS011;31567;54.600;9.842;2023-11-18T09:03:32;7.45;;;6.72;;
45848;SDS011;31567;54.600;9.842;2023-11-18T09:07:14;6.38;;;5.78;;
45848;SDS011;31567;54.600;9.842;2023-11-18T09:10:55;6.40;;;5.80;;
45848;SDS011;31567;54.600;9.842;2023-11-18T09:14:35;6.22;;;5.63;;
45848;SDS011;31567;54.600;9.842;2023-11-18T09:18:15;5.90;;;5.30;;
45848;SDS011;31567;54.600;9.842;2023-11-18T09:21:56;5.88;;;5.28;;
45848;SDS011;31567;54.600;9.842;2023-11-18T09:25:36;6.28;;;5.63;;
45848;SDS011;31567;54.600;9.842;2023-11-18T09:29:16;5.93;;;5.32;;
45848;SDS011;31567;54.600;9.842;2023-11-18T09:32:57;6.18;;;5.43;;
45848;SDS011;31567;54.600;9.842;2023-11-18T09:36:41;6.68;;;5.53;;
45848;SDS011;31567;54.600;9.842;2023-11-18T09:40:22;6.35;;;5.63;;
45848;SDS011;31567;54.600;9.842;2023-11-18T09:44:10;6.35;;;5.75;;
45848;SDS011;31567;54.600;9.842;2023-11-18T09:47:51;6.28;;;5.68;;
45848;SDS011;31567;54.600;9.842;2023-11-18T09:51:34;6.93;;;6.22;;
45848;SDS011;31567;54.600;9.842;2023-11-18T09:55:21;6.32;;;5.72;;
45848;SDS011;31567;54.600;9.842;2023-11-18T09:59:18;6.82;;;6.07;;
45848;SDS011;31567;54.600;9.842;2023-11-18T10:03:13;6.95;;;6.20;;
45848;SDS011;31567;54.600;9.842;2023-11-18T10:06:54;7.47;;;6.68;;
45848;SDS011;31567;54.600;9.842;2023-11-18T10:10:35;7.95;;;6.78;;
45848;SDS011;31567;54.600;9.842;2023-11-18T10:14:15;8.45;;;7.13;;
45848;SDS011;31567;54.600;9.842;2023-11-18T10:17:55;7.95;;;7.15;;
45848;SDS011;31567;54.600;9.842;2023-11-18T10:21:45;6.57;;;5.90;;
45848;SDS011;31567;54.600;9.842;2023-11-18T10:25:28;7.30;;;6.38;;
45848;SDS011;31567;54.600;9.842;2023-11-18T10:29:08;7.25;;;6.55;;
45848;SDS011;31567;54.600;9.842;2023-11-18T10:32:58;7.10;;;6.40;;
45848;SDS011;31567;54.600;9.842;2023-11-18T10:36:58;7.03;;;6.22;;
45848;SDS011;31567;54.600;9.842;2023-11-18T10:40:42;6.07;;;5.40;;
45848;SDS011;31567;54.600;9.842;2023-11-18T10:44:22;7.00;;;6.30;;
45848;SDS011;31567;54.600;9.842;2023-11-18T10:48:03;6.15;;;5.55;;
45848;SDS011;31567;54.600;9.842;2023-11-18T10:51:43;6.68;;;5.97;;
45848;SDS011;31567;54.600;9.842;2023-11-18T10:55:44;6.20;;;5.60;;
45848;SDS011;31567;54.600;9.842;2023-11-18T10:59:24;8.15;;;5.53;;
45848;SDS011;31567;54.600;9.842;2023-11-18T11:03:05;6.60;;;5.90;;
45848;SDS011;31567;54.600;9.842;2023-11-18T11:06:45;6.60;;;5.68;;
45848;SDS011;31567;54.600;9.842;2023-11-18T11:10:31;6.35;;;5.40;;
45848;SDS011;31567;54.600;9.842;2023-11-18T11:14:10;6.30;;;5.70;;
45848;SDS011;31567;54.600;9.842;2023-11-18T11:17:53;7.80;;;5.93;;
45848;SDS011;31567;54.600;9.842;2023-11-18T11:21:43;6.43;;;5.82;;
45848;SDS011;31567;54.600;9.842;2023-11-18T11:25:38;7.18;;;6.07;;
45848;SDS011;31567;54.600;9.842;2023-11-18T11:29:32;5.40;;;4.90;;
45848;SDS011;31567;54.600;9.842;2023-11-18T11:33:32;7.03;;;4.93;;
45848;SDS011;31567;54.600;9.842;2023-11-18T11:37:19;5.32;;;4.82;;
45848;SDS011;31567;54.600;9.842;2023-11-18T11:41:02;5.63;;;5.03;;
45848;SDS011;31567;54.600;9.842;2023-11-18T11:44:44;6.00;;;5.40;;
45848;SDS011;31567;54.600;9.842;2023-11-18T11:48:26;4.90;;;4.40;;
45848;SDS011;31567;54.600;9.842;2023-11-18T11:52:08;4.90;;;4.40;;
45848;SDS011;31567;54.600;9.842;2023-11-18T11:55:54;5.68;;;4.43;;
45848;SDS011;31567;54.600;9.842;2023-11-18T12:03:25;4.30;;;3.90;;
45848;SDS011;31567;54.600;9.842;2023-11-18T12:07:05;4.65;;;4.25;;
45848;SDS011;31567;54.600;9.842;2023-11-18T12:10:54;4.68;;;3.47;;
45848;SDS011;31567;54.600;9.842;2023-11-18T12:14:49;5.05;;;4.55;;
45848;SDS011;31567;54.600;9.842;2023-11-18T12:18:31;4.13;;;3.72;;
45848;SDS011;31567;54.600;9.842;2023-11-18T12:22:11;4.00;;;3.60;;
45848;SDS011;31567;54.600;9.842;2023-11-18T12:26:03;6.43;;;4.90;;
45848;SDS011;31567;54.600;9.842;2023-11-18T12:34:02;4.88;;;4.40;;
45848;SDS011;31567;54.600;9.842;2023-11-18T12:38:02;5.10;;;4.60;;
45848;SDS011;31567;54.600;9.842;2023-11-18T12:42:03;5.63;;;5.03;;
45848;SDS011;31567;54.600;9.842;2023-11-18T12:49:53;5.90;;;5.40;;
45848;SDS011;31567;54.600;9.842;2023-11-18T12:53:35;6.53;;;5.93;;
45848;SDS011;31567;54.600;9.842;2023-11-18T12:57:15;5.65;;;5.15;;
45848;SDS011;31567;54.600;9.842;2023-11-18T13:00:55;6.20;;;5.60;;
45848;SDS011;31567;54.600;9.842;2023-11-18T13:04:35;6.53;;;5.85;;
45848;SDS011;31567;54.600;9.842;2023-11-18T13:08:19;6.72;;;6.13;;
45848;SDS011;31567;54.600;9.842;2023-11-18T13:12:02;7.20;;;5.97;;
45848;SDS011;31567;54.600;9.842;2023-11-18T13:15:47;6.43;;;5.82;;
45848;SDS011;31567;54.600;9.842;2023-11-18T13:19:29;6.03;;;5.47;;
45848;SDS011;31567;54.600;9.842;2023-11-18T13:23:09;6.22;;;5.63;;
45848;SDS011;31567;54.600;9.842;2023-11-18T13:26:48;5.70;;;4.90;;
45848;SDS011;31567;54.600;9.842;2023-11-18T13:30:28;5.78;;;5.28;;
45848;SDS011;31567;54.600;9.842;2023-11-18T13:34:08;6.25;;;5.68;;
45848;SDS011;31567;54.600;9.842;2023-11-18T13:37:49;5.13;;;4.63;;
45848;SDS011;31567;54.600;9.842;2023-11-18T13:41:32;5.55;;;5.05;;
45848;SDS011;31567;54.600;9.842;2023-11-18T13:45:13;5.22;;;4.80;;
45848;SDS011;31567;54.600;9.842;2023-11-18T13:48:58;5.53;;;5.03;;
45848;SDS011;31567;54.600;9.842;2023-11-18T13:52:38;6.28;;;5.35;;
45848;SDS011;31567;54.600;9.842;2023-11-18T13:56:18;5.30;;;4.80;;
45848;SDS011;31567;54.600;9.842;2023-11-18T13:59:59;5.35;;;4.85;;
45848;SDS011;31567;54.600;9.842;2023-11-18T14:03:39;4.78;;;4.38;;
45848;SDS011;31567;54.600;9.842;2023-11-18T14:07:19;4.45;;;4.07;;
45848;SDS011;31567;54.600;9.842;2023-11-18T14:10:59;4.97;;;4.32;;
45848;SDS011;31567;54.600;9.842;2023-11-18T14:14:39;5.25;;;4.30;;
45848;SDS011;31567;54.600;9.842;2023-11-18T14:18:20;5.28;;;4.43;;
45848;SDS011;31567;54.600;9.842;2023-11-18T14:22:00;5.10;;;4.60;;
45848;SDS011;31567;54.600;9.842;2023-11-18T14:25:40;5.97;;;5.38;;
45848;SDS011;31567;54.600;9.842;2023-11-18T14:29:19;5.75;;;5.15;;
45848;SDS011;31567;54.600;9.842;2023-11-18T14:32:59;7.50;;;5.75;;
45848;SDS011;31567;54.600;9.842;2023-11-18T14:36:39;6.75;;;6.05;;
45848;SDS011;31567;54.600;9.842;2023-11-18T14:40:19;6.93;;;6.07;;
45848;SDS011;31567;54.600;9.842;2023-11-18T14:44:02;7.07;;;6.38;;
45848;SDS011;31567;54.600;9.842;2023-11-18T14:47:44;6.30;;;5.70;;
45848;SDS011;31567;54.600;9.842;2023-11-18T14:51:25;6.65;;;5.75;;
45848;SDS011;31567;54.600;9.842;2023-11-18T14:55:05;5.70;;;5.20;;
45848;SDS011;31567;54.600;9.842;2023-11-18T14:58:45;5.07;;;4.68;;
45848;SDS011;31567;54.600;9.842;2023-11-18T15:02:28;6.10;;;5.07;;
45848;SDS011;31567;54.600;9.842;2023-11-18T15:06:08;5.60;;;5.10;;
45848;SDS011;31567;54.600;9.842;2023-11-18T15:09:50;5.53;;;5.00;;
45848;SDS011;31567;54.600;9.842;2023-11-18T15:13:31;5.20;;;4.80;;
45848;SDS011;31567;54.600;9.842;2023-11-18T15:17:11;5.00;;;4.50;;
45848;SDS011;31567;54.600;9.842;2023-11-18T15:20:52;4.15;;;3.78;;
45848;SDS011;31567;54.600;9.842;2023-11-18T15:24:32;5.72;;;5.13;;
45848;SDS011;31567;54.600;9.842;2023-11-18T15:28:12;4.32;;;4.03;;
45848;SDS011;31567;54.600;9.842;2023-11-18T15:31:53;5.63;;;4.20;;
45848;SDS011;31567;54.600;9.842;2023-11-18T15:35:34;5.30;;;4.80;;
45848;SDS011;31567;54.600;9.842;2023-11-18T15:39:22;5.07;;;4.57;;
45848;SDS011;31567;54.600;9.842;2023-11-18T15:43:03;4.70;;;4.30;;
45848;SDS011;31567;54.600;9.842;2023-11-18T15:46:49;5.70;;;4.70;;
45848;SDS011;31567;54.600;9.842;2023-11-18T15:50:28;5.30;;;4.35;;
45848;SDS011;31567;54.600;9.842;2023-11-18T15:54:08;5.00;;;4.50;;
45848;SDS011;31567;54.600;9.842;2023-11-18T15:57:50;4.60;;;4.20;;
45848;SDS011;31567;54.600;9.842;2023-11-18T16:01:34;4.75;;;4.05;;
45848;SDS011;31567;54.600;9.842;2023-11-18T16:05:17;4.45;;;4.05;;
45848;SDS011;31567;54.600;9.842;2023-11-18T16:08:59;6.20;;;4.50;;
45848;SDS011;31567;54.600;9.842;2023-11-18T16:12:39;4.40;;;4.03;;
45848;SDS011;31567;54.600;9.842;2023-11-18T16:16:19;4.45;;;4.05;;
45848;SDS011;31567;54.600;9.842;2023-11-18T16:19:58;4.40;;;4.00;;
45848;SDS011;31567;54.600;9.842;2023-11-18T16:23:38;4.32;;;3.63;;
45848;SDS011;31567;54.600;9.842;2023-11-18T16:27:18;4.55;;;4.13;;
45848;SDS011;31567;54.600;9.842;2023-11-18T16:30:58;6.10;;;4.60;;
45848;SDS011;31567;54.600;9.842;2023-11-18T16:34:39;4.40;;;4.00;;
45848;SDS011;31567;54.600;9.842;2023-11-18T16:38:19;6.72;;;4.88;;
45848;SDS011;31567;54.600;9.842;2023-11-18T16:41:58;4.18;;;3.80;;
45848;SDS011;31567;54.600;9.842;2023-11-18T16:45:38;4.15;;;3.75;;
45848;SDS011;31567;54.600;9.842;2023-11-18T16:49:19;4.47;;;4.07;;
45848;SDS011;31567;54.600;9.842;2023-11-18T16:53:00;4.15;;;3.85;;
45848;SDS011;31567;54.600;9.842;2023-11-18T16:56:42;4.50;;;3.90;;
45848;SDS011;31567;54.600;9.842;2023-11-18T17:00:22;4.35;;;3.97;;
45848;SDS011;31567;54.600;9.842;2023-11-18T17:04:02;4.75;;;3.75;;
45848;SDS011;31567;54.600;9.842;2023-11-18T17:07:41;4.70;;;3.88;;
45848;SDS011;31567;54.600;9.842;2023-11-18T17:11:21;5.75;;;4.47;;
45848;SDS011;31567;54.600;9.842;2023-11-18T17:15:00;5.38;;;4.50;;
45848;SDS011;31567;54.600;9.842;2023-11-18T17:18:40;4.47;;;4.07;;
45848;SDS011;31567;54.600;9.842;2023-11-18T17:22:20;4.07;;;3.72;;
45848;SDS011;31567;54.600;9.842;2023-11-18T17:25:59;4.45;;;4.05;;
45848;SDS011;31567;54.600;9.842;2023-11-18T17:29:39;4.45;;;4.05;;
45848;SDS011;31567;54.600;9.842;2023-11-18T17:33:18;4.32;;;3.92;;
45848;SDS011;31567;54.600;9.842;2023-11-18T17:36:58;4.32;;;3.65;;
45848;SDS011;31567;54.600;9.842;2023-11-18T17:40:37;7.38;;;4.55;;
45848;SDS011;31567;54.600;9.842;2023-11-18T17:44:17;4.28;;;3.85;;
45848;SDS011;31567;54.600;9.842;2023-11-18T17:47:57;4.70;;;4.30;;
45848;SDS011;31567;54.600;9.842;2023-11-18T17:51:36;9.10;;;4.68;;
45848;SDS011;31567;54.600;9.842;2023-11-18T17:55:16;5.63;;;4.53;;
45848;SDS011;31567;54.600;9.842;2023-11-18T17:58:55;5.57;;;4.45;;
45848;SDS011;31567;54.600;9.842;2023-11-18T18:02:35;6.82;;;6.07;;
45848;SDS011;31567;54.600;9.842;2023-11-18T18:06:15;4.43;;;4.03;;
45848;SDS011;31567;54.600;9.842;2023-11-18T18:09:55;4.80;;;4.07;;
45848;SDS011;31567;54.600;9.842;2023-11-18T18:13:35;4.80;;;4.38;;
45848;SDS011;31567;54.600;9.842;2023-11-18T18:17:15;5.03;;;4.53;;
45848;SDS011;31567;54.600;9.842;2023-11-18T18:20:55;4.85;;;4.43;;
45848;SDS011;31567;54.600;9.842;2023-11-18T18:24:34;4.63;;;4.18;;
45848;SDS011;31567;54.600;9.842;2023-11-18T18:28:14;5.50;;;4.55;;
45848;SDS011;31567;54.600;9.842;2023-11-18T18:31:53;4.35;;;3.90;;
45848;SDS011;31567;54.600;9.842;2023-11-18T18:35:33;5.10;;;4.47;;
45848;SDS011;31567;54.600;9.842;2023-11-18T18:39:12;7.40;;;4.68;;
45848;SDS011;31567;54.600;9.842;2023-11-18T18:42:52;6.03;;;4.85;;
45848;SDS011;31567;54.600;9.842;2023-11-18T18:46:32;4.53;;;3.97;;
45848;SDS011;31567;54.600;9.842;2023-11-18T18:50:11;5.15;;;4.65;;
45848;SDS011;31567;54.600;9.842;2023-11-18T18:53:52;5.72;;;4.88;;
45848;SDS011;31567;54.600;9.842;2023-11-18T18:57:32;5.15;;;4.65;;
45848;SDS011;31567;54.600;9.842;2023-11-18T19:01:12;6.10;;;5.50;;
45848;SDS011;31567;54.600;9.842;2023-11-18T19:04:53;5.82;;;5.30;;
45848;SDS011;31567;54.600;9.842;2023-11-18T19:08:33;7.88;;;5.75;;
45848;SDS011;31567;54.600;9.842;2023-11-18T19:12:12;6.07;;;5.40;;
45848;SDS011;31567;54.600;9.842;2023-11-18T19:15:52;6.25;;;5.18;;
45848;SDS011;31567;54.600;9.842;2023-11-18T19:19:31;6.72;;;5.68;;
45848;SDS011;31567;54.600;9.842;2023-11-18T19:23:11;5.50;;;4.88;;
45848;SDS011;31567;54.600;9.842;2023-11-18T19:26:51;6.63;;;5.72;;
45848;SDS011;31567;54.600;9.842;2023-11-18T19:30:30;7.28;;;5.68;;
45848;SDS011;31567;54.600;9.842;2023-11-18T19:34:10;6.50;;;5.32;;
45848;SDS011;31567;54.600;9.842;2023-11-18T19:37:49;8.85;;;6.47;;
45848;SDS011;31567;54.600;9.842;2023-11-18T19:41:29;7.00;;;5.72;;
45848;SDS011;31567;54.600;9.842;2023-11-18T19:45:09;6.65;;;5.95;;
45848;SDS011;31567;54.600;9.842;2023-11-18T19:48:51;7.47;;;6.68;;
45848;SDS011;31567;54.600;9.842;2023-11-18T19:52:31;7.00;;;5.95;;
45848;SDS011;31567;54.600;9.842;2023-11-18T19:56:10;8.15;;;6.13;;
45848;SDS011;31567;54.600;9.842;2023-11-18T19:59:50;10.23;;;6.80;;
45848;SDS011;31567;54.600;9.842;2023-11-18T20:03:31;8.48;;;6.43;;
45848;SDS011;31567;54.600;9.842;2023-11-18T20:07:11;7.80;;;6.30;;
45848;SDS011;31567;54.600;9.842;2023-11-18T20:10:52;7.57;;;6.28;;
45848;SDS011;31567;54.600;9.842;2023-11-18T20:14:32;8.23;;;7.18;;
45848;SDS011;31567;54.600;9.842;2023-11-18T20:18:16;7.95;;;7.13;;
45848;SDS011;31567;54.600;9.842;2023-11-18T20:21:57;9.90;;;6.97;;
45848;SDS011;31567;54.600;9.842;2023-11-18T20:25:37;9.85;;;6.38;;
45848;SDS011;31567;54.600;9.842;2023-11-18T20:29:18;9.05;;;6.72;;
45848;SDS011;31567;54.600;9.842;2023-11-18T20:32:58;7.80;;;6.25;;
45848;SDS011;31567;54.600;9.842;2023-11-18T20:36:38;8.07;;;6.88;;
45848;SDS011;31567;54.600;9.842;2023-11-18T20:40:18;10.10;;;7.72;;
45848;SDS011;31567;54.600;9.842;2023-11-18T20:44:00;9.82;;;6.97;;
45848;SDS011;31567;54.600;9.842;2023-11-18T20:47:40;9.95;;;6.88;;
45848;SDS011;31567;54.600;9.842;2023-11-18T20:51:20;8.05;;;6.57;;
45848;SDS011;31567;54.600;9.842;2023-11-18T20:54:59;8.73;;;6.90;;
45848;SDS011;31567;54.600;9.842;2023-11-18T20:58:39;8.63;;;7.45;;
45848;SDS011;31567;54.600;9.842;2023-11-18T21:02:23;9.00;;;6.57;;
45848;SDS011;31567;54.600;9.842;2023-11-18T21:06:03;8.68;;;6.68;;
45848;SDS011;31567;54.600;9.842;2023-11-18T21:09:42;10.02;;;6.47;;
45848;SDS011;31567;54.600;9.842;2023-11-18T21:13:22;9.02;;;6.60;;
45848;SDS011;31567;54.600;9.842;2023-11-18T21:17:04;7.65;;;6.70;;
45848;SDS011;31567;54.600;9.842;2023-11-18T21:20:50;8.37;;;7.03;;
45848;SDS011;31567;54.600;9.842;2023-11-18T21:24:29;10.75;;;7.15;;
45848;SDS011;31567;54.600;9.842;2023-11-18T21:28:09;10.57;;;7.38;;
45848;SDS011;31567;54.600;9.842;2023-11-18T21:31:49;8.52;;;7.22;;
45848;SDS011;31567;54.600;9.842;2023-11-18T21:35:29;9.15;;;7.43;;
45848;SDS011;31567;54.600;9.842;2023-11-18T21:39:08;10.05;;;7.93;;
45848;SDS011;31567;54.600;9.842;2023-11-18T21:42:52;11.77;;;7.85;;
45848;SDS011;31567;54.600;9.842;2023-11-18T21:46:32;7.50;;;6.50;;
45848;SDS011;31567;54.600;9.842;2023-11-18T21:50:12;8.93;;;6.63;;
45848;SDS011;31567;54.600;9.842;2023-11-18T21:53:54;10.80;;;7.85;;
45848;SDS011;31567;54.600;9.842;2023-11-18T21:57:34;10.45;;;6.93;;
45848;SDS011;31567;54.600;9.842;2023-11-18T22:01:17;10.55;;;8.43;;
45848;SDS011;31567;54.600;9.842;2023-11-18T22:04:56;10.30;;;7.75;;
45848;SDS011;31567;54.600;9.842;2023-11-18T22:08:37;13.45;;;8.00;;
45848;SDS011;31567;54.600;9.842;2023-11-18T22:12:16;10.65;;;7.40;;
45848;SDS011;31567;54.600;9.842;2023-11-18T22:15:56;11.00;;;7.65;;